Time;durP1;ratioP1;P1;durP2;ratioP2;P2;SDS_P1;SDS_P2;PMS_P1;PMS_P2;Temp;Humidity;BMP_temperature;BMP_pressure;BME280_temperature;BME280_humidity;BME280_pressure;Samples;Min_cycle;Max_cycle;Signal;HPM_P1;HPM_P2
2023/04/12 00:00:09;;;;;;;12.27;11.47;;;10.30;27.70;;;;;;2608891;54;20602;-70
2023/04/12 00:05:58;;;;;;;13.70;12.70;;;10.20;30.00;;;;;;2608453;54;20411;-69
2023/04/12 00:09:07;;;;;;;12.60;11.70;;;10.20;30.80;;;;;;2610388;39;20834;-69
2023/04/12 00:11:35;;;;;;;12.60;11.70;;;10.20;32.70;;;;;;2608790;54;20407;-69
2023/04/12 00:17:22;;;;;;;12.50;11.30;;;10.20;34.70;;;;;;2608063;54;20476;-69
2023/04/12 00:23:11;;;;;;;12.57;11.73;;;10.20;34.50;;;;;;2608474;54;20161;-69
2023/04/12 00:28:59;;;;;;;12.47;11.67;;;10.30;36.50;;;;;;2608791;46;20382;-69
2023/04/12 00:34:46;;;;;;;12.13;11.53;;;10.30;36.10;;;;;;2608830;54;20842;-69
2023/04/12 00:40:34;;;;;;;11.80;10.90;;;10.30;38.90;;;;;;2608882;54;20134;-68
2023/04/12 00:46:22;;;;;;;12.20;11.40;;;10.20;45.20;;;;;;2608403;54;20391;-68
2023/04/12 00:52:13;;;;;;;11.00;10.00;;;10.10;51.80;;;;;;2610072;54;20692;-69
2023/04/12 00:58:02;;;;;;;10.57;9.77;;;10.00;66.90;;;;;;2609118;54;20403;-69
2023/04/12 01:03:52;;;;;;;9.40;8.90;;;9.80;84.30;;;;;;2606067;54;20391;-68
2023/04/12 01:20:15;;;;;;;10.73;9.63;;;9.50;99.90;;;;;;2606230;54;20363;-69
2023/04/12 01:26:33;;;;;;;12.33;8.90;;;9.50;99.90;;;;;;2608041;54;20480;-69
2023/04/12 01:32:21;;;;;;;7.90;7.40;;;9.40;99.90;;;;;;2607604;54;20435;-69
2023/04/12 01:38:09;;;;;;;9.73;7.87;;;9.30;99.90;;;;;;2607367;54;20346;-70
2023/04/12 01:43:56;;;;;;;7.97;7.10;;;9.20;99.90;;;;;;2607883;54;20476;-69
2023/04/12 01:56:21;;;;;;;7.03;6.53;;;9.20;99.90;;;;;;2609247;54;20350;-70
2023/04/12 02:02:12;;;;;;;6.20;5.70;;;9.10;99.90;;;;;;2608486;54;20367;-69
2023/04/12 02:08:01;;;;;;;9.10;6.27;;;9.10;99.90;;;;;;2611232;54;20438;-70
2023/04/12 02:13:49;;;;;;;7.80;6.57;;;9.00;99.90;;;;;;2609067;54;20482;-70
2023/04/12 02:19:37;;;;;;;7.57;6.00;;;9.00;99.90;;;;;;2610406;54;21198;-69
2023/04/12 02:25:26;;;;;;;8.03;5.20;;;8.90;99.90;;;;;;2609515;54;20122;-69
2023/04/12 02:31:14;;;;;;;7.73;6.07;;;8.90;99.90;;;;;;2609034;54;20921;-69
2023/04/12 02:37:02;;;;;;;6.47;5.80;;;8.90;99.90;;;;;;2609019;54;20386;-69
2023/04/12 02:42:50;;;;;;;6.87;5.77;;;8.90;99.90;;;;;;2609399;54;20343;-69
2023/04/12 02:48:38;;;;;;;5.40;4.90;;;8.90;99.90;;;;;;2612062;31;20628;-68
2023/04/12 02:54:25;;;;;;;7.03;5.50;;;8.90;99.90;;;;;;2613232;54;20672;-68
2023/04/12 03:00:15;;;;;;;6.50;5.77;;;8.90;99.90;;;;;;2613781;54;20127;-68
2023/04/12 03:06:03;;;;;;;5.63;4.97;;;8.90;99.90;;;;;;2613335;54;20384;-68
2023/04/12 03:09:08;;;;;;;6.27;5.67;;;8.90;99.90;;;;;;2612642;54;20384;-69
2023/04/12 03:11:33;;;;;;;6.83;5.40;;;8.80;99.90;;;;;;2612879;54;20422;-69
2023/04/12 03:17:20;;;;;;;6.03;4.87;;;8.80;99.90;;;;;;2612046;54;20142;-68
2023/04/12 03:23:09;;;;;;;6.43;5.23;;;8.70;99.90;;;;;;2612116;54;20204;-69
2023/04/12 03:29:00;;;;;;;6.97;5.20;;;8.80;99.90;;;;;;2612902;54;20511;-69
2023/04/12 03:34:47;;;;;;;5.57;5.17;;;8.70;99.90;;;;;;2614132;54;21331;-69
2023/04/12 03:40:35;;;;;;;5.57;5.07;;;8.70;99.90;;;;;;2609253;54;20139;-68
2023/04/12 03:46:23;;;;;;;5.30;4.80;;;8.70;99.90;;;;;;2608702;54;20243;-68
2023/04/12 03:52:11;;;;;;;6.23;5.57;;;8.80;99.90;;;;;;2606556;54;20280;-68
2023/04/12 03:57:58;;;;;;;6.97;6.23;;;8.80;99.90;;;;;;2609090;54;20211;-68
2023/04/12 04:03:47;;;;;;;7.53;5.30;;;8.80;99.90;;;;;;2608275;54;20133;-69
2023/04/12 04:13:34;;;;;;;5.50;5.10;;;8.80;99.90;;;;;;2609053;54;20347;-67
2023/04/12 04:19:21;;;;;;;5.50;5.00;;;8.80;99.90;;;;;;2608040;54;20371;-66
2023/04/12 04:25:13;;;;;;;5.50;5.10;;;8.80;99.90;;;;;;2609596;54;20717;-69
2023/04/12 04:31:04;;;;;;;5.53;5.13;;;8.80;99.90;;;;;;2610875;54;20905;-68
2023/04/12 04:36:52;;;;;;;6.20;5.70;;;8.80;99.90;;;;;;2607682;54;20354;-68
2023/04/12 04:42:41;;;;;;;6.80;6.20;;;8.90;99.90;;;;;;2607662;54;20262;-68
2023/04/12 04:48:29;;;;;;;4.90;4.60;;;8.80;99.90;;;;;;2606307;54;21714;-68
2023/04/12 04:54:17;;;;;;;5.33;4.93;;;8.80;99.90;;;;;;2608743;54;20122;-71
2023/04/12 05:00:09;;;;;;;6.03;5.43;;;8.90;99.90;;;;;;2610157;54;20170;-72
2023/04/12 05:05:57;;;;;;;11.17;5.43;;;8.90;99.90;;;;;;2609773;54;20402;-73
2023/04/12 05:09:07;;;;;;;8.40;4.93;;;8.90;99.90;;;;;;2608070;54;20403;-72
2023/04/12 05:11:33;;;;;;;10.63;4.77;;;8.90;99.90;;;;;;2610342;39;20344;-72
2023/04/12 05:17:20;;;;;;;4.00;3.70;;;8.80;99.90;;;;;;2609069;54;20138;-75
2023/04/12 05:23:08;;;;;;;7.87;4.53;;;8.60;99.90;;;;;;2611164;54;20134;-72
2023/04/12 05:28:56;;;;;;;4.33;4.03;;;8.60;99.90;;;;;;2614488;39;20516;-72
2023/04/12 05:34:43;;;;;;;5.63;5.20;;;8.50;99.90;;;;;;2609608;54;20737;-73
2023/04/12 05:40:31;;;;;;;5.33;3.87;;;8.40;99.90;;;;;;2609270;54;20161;-72
2023/04/12 05:46:20;;;;;;;5.13;4.00;;;8.40;99.90;;;;;;2609024;54;20118;-74
2023/04/12 05:52:08;;;;;;;8.43;3.80;;;8.20;99.90;;;;;;2611569;54;20573;-73
2023/04/12 05:57:57;;;;;;;7.83;4.10;;;8.30;99.90;;;;;;2610314;31;20596;-74
2023/04/12 06:03:47;;;;;;;4.73;3.27;;;8.20;99.90;;;;;;2606525;46;20374;-75
2023/04/12 06:13:35;;;;;;;5.77;3.07;;;8.40;99.90;;;;;;2607889;54;20539;-74
2023/04/12 06:19:22;;;;;;;7.00;3.23;;;8.40;99.90;;;;;;2607330;54;20393;-74
2023/04/12 06:25:10;;;;;;;3.43;2.83;;;8.40;99.90;;;;;;2608923;54;20184;-74
2023/04/12 06:30:58;;;;;;;2.33;2.13;;;8.50;99.90;;;;;;2608212;54;22496;-74
2023/04/12 06:36:46;;;;;;;4.50;2.80;;;8.40;99.90;;;;;;2606502;54;20126;-75
2023/04/12 06:42:35;;;;;;;4.13;3.73;;;8.40;99.90;;;;;;2607741;54;20368;-75
2023/04/12 06:48:22;;;;;;;2.60;2.33;;;8.60;99.90;;;;;;2608160;54;20411;-74
2023/04/12 06:54:10;;;;;;;4.03;2.30;;;8.60;99.90;;;;;;2614097;54;20130;-75
2023/04/12 06:59:58;;;;;;;3.37;2.50;;;8.70;99.90;;;;;;2609462;39;20738;-74
2023/04/12 07:05:46;;;;;;;2.43;2.10;;;8.80;99.90;;;;;;2612452;54;20127;-75
2023/04/12 07:09:08;;;;;;;2.43;2.23;;;8.70;99.90;;;;;;2613622;54;20408;-75
2023/04/12 07:11:33;;;;;;;2.57;1.90;;;8.70;99.90;;;;;;2610943;54;20428;-74
2023/04/12 07:17:21;;;;;;;3.40;2.30;;;8.60;99.90;;;;;;2613891;54;20138;-75
2023/04/12 07:23:09;;;;;;;2.30;1.80;;;8.80;99.90;;;;;;2614304;54;20362;-74
2023/04/12 07:28:56;;;;;;;2.97;2.37;;;9.00;99.90;;;;;;2613047;54;20122;-74
2023/04/12 07:34:44;;;;;;;2.03;1.77;;;9.00;99.90;;;;;;2613083;54;20170;-76
2023/04/12 07:40:32;;;;;;;2.40;2.20;;;9.10;99.90;;;;;;2613141;54;20257;-76
2023/04/12 07:46:20;;;;;;;4.50;2.10;;;9.20;99.90;;;;;;2613446;54;20165;-75
2023/04/12 07:52:08;;;;;;;2.30;2.10;;;9.10;99.90;;;;;;2612922;54;20129;-77
2023/04/12 07:57:55;;;;;;;2.90;2.40;;;9.30;99.90;;;;;;2613738;39;20229;-76
2023/04/12 08:00:59;;;;;;;2.10;1.70;;;9.40;99.90;;;;;;2611436;54;20972;-76
2023/04/12 08:03:25;;;;;;;5.00;2.57;;;9.40;99.90;;;;;;2612889;54;20158;-76
2023/04/12 08:09:12;;;;;;;4.73;1.90;;;9.20;99.90;;;;;;2613545;54;20390;-75
2023/04/12 08:15:00;;;;;;;3.23;2.60;;;9.20;99.90;;;;;;2610893;54;20170;-75
2023/04/12 08:20:48;;;;;;;2.70;1.87;;;9.10;99.90;;;;;;2611794;54;20142;-75
2023/04/12 08:26:35;;;;;;;2.73;2.00;;;9.00;99.90;;;;;;2612875;54;20173;-75
2023/04/12 08:32:23;;;;;;;1.70;1.27;;;9.00;99.90;;;;;;2611380;54;20235;-76
2023/04/12 08:38:11;;;;;;;3.43;1.87;;;9.10;99.90;;;;;;2609718;54;21061;-75
2023/04/12 08:43:59;;;;;;;4.03;2.00;;;9.40;99.90;;;;;;2610616;54;20403;-75
2023/04/12 08:49:48;;;;;;;2.60;2.30;;;9.70;99.90;;;;;;2610226;54;20527;-76
2023/04/12 08:55:35;;;;;;;1.83;1.33;;;9.80;99.90;;;;;;2611114;54;20530;-76
2023/04/12 09:01:24;;;;;;;3.10;1.70;;;9.80;99.90;;;;;;2611916;54;20622;-75
2023/04/12 09:07:11;;;;;;;1.90;1.33;;;9.80;99.90;;;;;;2611220;54;20435;-75
2023/04/12 09:40:09;;;;;;;2.63;1.40;;;10.10;99.90;;;;;;2610342;54;20533;-74
2023/04/12 09:52:36;;;;;;;3.00;2.23;;;10.30;99.90;;;;;;2611887;54;20399;-75
2023/04/12 09:58:25;;;;;;;1.60;1.43;;;10.40;99.90;;;;;;2610942;54;20401;-76
2023/04/12 10:04:12;;;;;;;2.43;2.23;;;10.50;99.90;;;;;;2612103;54;20430;-74
2023/04/12 10:10:03;;;;;;;4.13;2.27;;;10.70;99.90;;;;;;2613736;39;20537;-75
2023/04/12 10:15:52;;;;;;;2.83;2.10;;;11.00;99.90;;;;;;2612157;54;20442;-75
2023/04/12 10:19:13;;;;;;;6.03;2.97;;;11.00;99.90;;;;;;2612756;54;20438;-75
2023/04/12 10:25:01;;;;;;;3.23;2.40;;;11.30;99.90;;;;;;2613620;54;20430;-75
2023/04/12 10:30:51;;;;;;;3.03;2.67;;;10.90;99.90;;;;;;2613067;54;20162;-74
2023/04/12 10:36:55;;;;;;;3.30;2.40;;;11.20;99.90;;;;;;2613413;54;20414;-75
2023/04/12 10:42:43;;;;;;;3.10;2.80;;;11.00;99.90;;;;;;2613619;54;20960;-75
2023/04/12 11:02:07;;;;;;;2.67;2.17;;;10.60;99.90;;;;;;2608111;54;20947;-75
2023/04/12 11:07:58;;;;;;;5.33;4.50;;;10.80;99.90;;;;;;2611830;54;20447;-75
2023/04/12 11:13:46;;;;;;;5.03;4.63;;;10.90;99.90;;;;;;2611114;54;20976;-76
2023/04/12 11:19:41;;;;;;;5.50;4.80;;;10.80;99.90;;;;;;2611052;54;20205;-76
2023/04/12 11:23:00;;;;;;;6.57;5.90;;;10.80;99.90;;;;;;2612082;39;20870;-77
2023/04/12 11:28:51;;;;;;;6.50;5.83;;;10.80;99.90;;;;;;2610498;54;20403;-75
2023/04/12 11:34:41;;;;;;;6.10;4.00;;;10.40;99.90;;;;;;2612938;39;20866;-76
2023/04/12 11:40:28;;;;;;;3.03;2.83;;;10.10;99.90;;;;;;2613111;54;20395;-75
2023/04/12 11:46:17;;;;;;;6.03;3.50;;;10.00;99.90;;;;;;2610184;39;20564;-74
2023/04/12 11:52:05;;;;;;;5.60;3.60;;;10.30;99.90;;;;;;2612114;46;20407;-75
2023/04/12 11:57:54;;;;;;;3.70;3.40;;;10.80;99.90;;;;;;2610615;54;20965;-75
2023/04/12 12:03:42;;;;;;;8.50;3.67;;;10.60;99.90;;;;;;2607959;54;20399;-74
2023/04/12 12:09:30;;;;;;;5.53;4.70;;;11.10;99.90;;;;;;2613240;39;20837;-74
2023/04/12 12:15:18;;;;;;;6.53;5.80;;;12.10;99.90;;;;;;2611661;39;20496;-75
2023/04/12 12:18:29;;;;;;;8.43;6.20;;;12.40;99.90;;;;;;2609386;47;20407;-74
2023/04/12 12:20:55;;;;;;;8.93;8.03;;;13.00;99.90;;;;;;2611766;54;20190;-74
2023/04/12 12:26:43;;;;;;;7.07;5.83;;;12.50;99.90;;;;;;2607327;54;20250;-75
2023/04/12 12:32:35;;;;;;;7.40;6.73;;;12.20;99.90;;;;;;2609017;54;20415;-75
2023/04/12 12:38:23;;;;;;;8.40;6.93;;;13.00;99.90;;;;;;2610432;54;21270;-75
2023/04/12 12:44:11;;;;;;;7.10;6.47;;;13.90;83.60;;;;;;2609458;54;20134;-76
2023/04/12 12:49:58;;;;;;;8.97;6.70;;;13.80;71.30;;;;;;2609236;54;20121;-75
2023/04/12 12:55:46;;;;;;;8.73;6.77;;;13.70;64.00;;;;;;2610090;54;20155;-75
2023/04/12 13:01:34;;;;;;;6.73;6.03;;;14.30;70.50;;;;;;2611300;54;20131;-75
2023/04/12 13:07:21;;;;;;;9.43;8.10;;;14.50;52.20;;;;;;2611012;54;20130;-75
2023/04/12 13:13:09;;;;;;;10.40;7.50;;;14.60;47.80;;;;;;2612638;54;20243;-75
2023/04/12 13:22:59;;;;;;;8.53;7.80;;;14.80;37.00;;;;;;2613690;54;20391;-75
2023/04/12 13:28:47;;;;;;;8.70;8.20;;;15.50;26.10;;;;;;2613728;54;21402;-74
2023/04/12 13:34:35;;;;;;;9.73;9.10;;;16.50;15.60;;;;;;2613846;54;20127;-74
2023/04/12 13:40:23;;;;;;;10.43;9.60;;;16.30;10.20;;;;;;2611958;54;20149;-74
2023/04/12 13:46:12;;;;;;;10.47;9.47;;;15.70;14.30;;;;;;2613461;39;20689;-74
2023/04/12 13:52:01;;;;;;;9.17;8.63;;;16.80;6.60;;;;;;2608956;54;20363;-75
2023/04/12 13:57:49;;;;;;;11.07;10.27;;;14.90;8.90;;;;;;2614016;54;20359;-74
2023/04/12 14:00:58;;;;;;;11.07;10.20;;;14.90;13.90;;;;;;2614670;54;20408;-74
2023/04/12 14:03:23;;;;;;;10.83;9.97;;;14.80;16.90;;;;;;2613494;54;20205;-73
2023/04/12 14:09:29;;;;;;;10.60;9.67;;;15.00;13.90;;;;;;2614621;54;20134;-75
2023/04/12 14:15:16;;;;;;;10.97;10.03;;;14.40;15.40;;;;;;2614981;54;20439;-74
2023/04/12 14:18:29;;;;;;;10.07;9.27;;;12.60;40.20;;;;;;2613788;47;20407;-74
2023/04/12 14:20:56;;;;;;;9.03;8.43;;;11.30;77.80;;;;;;2614184;46;20171;-75
2023/04/12 14:26:44;;;;;;;7.50;6.80;;;10.50;99.90;;;;;;2612769;54;20395;-74
2023/04/12 14:32:32;;;;;;;6.43;5.27;;;10.30;99.90;;;;;;2611525;54;20143;-73
2023/04/12 14:38:21;;;;;;;14.97;6.53;;;10.20;99.90;;;;;;2612625;54;20359;-74
2023/04/12 14:44:09;;;;;;;16.47;6.30;;;9.80;99.90;;;;;;2613053;54;20897;-75
2023/04/12 14:49:56;;;;;;;13.07;6.23;;;9.70;99.90;;;;;;2611539;54;20141;-74
2023/04/12 14:55:45;;;;;;;13.10;6.60;;;9.60;99.90;;;;;;2610853;54;20644;-75
2023/04/12 15:01:33;;;;;;;9.27;4.77;;;9.70;99.90;;;;;;2613045;54;20355;-74
2023/04/12 15:07:21;;;;;;;9.93;4.43;;;10.40;99.90;;;;;;2610896;54;20904;-74
2023/04/12 15:13:09;;;;;;;7.07;5.20;;;10.50;99.90;;;;;;2611026;54;20227;-75
2023/04/12 15:22:59;;;;;;;5.03;3.63;;;10.00;99.90;;;;;;2611090;54;20391;-75
2023/04/12 15:28:47;;;;;;;9.03;5.27;;;9.50;99.90;;;;;;2610964;54;20371;-75
2023/04/12 15:34:35;;;;;;;19.77;6.37;;;9.40;99.90;;;;;;2610602;54;20150;-75
2023/04/12 15:40:23;;;;;;;12.20;4.40;;;9.40;99.90;;;;;;2610988;39;20517;-75
2023/04/12 15:46:12;;;;;;;9.80;3.60;;;9.20;99.90;;;;;;2609378;54;20503;-75
2023/04/12 15:52:01;;;;;;;3.43;2.20;;;9.30;99.90;;;;;;2611920;54;20516;-74
2023/04/12 15:57:49;;;;;;;4.30;2.30;;;9.70;99.90;;;;;;2612590;54;20374;-75
2023/04/12 16:03:37;;;;;;;2.87;2.67;;;10.00;99.90;;;;;;2611196;54;20130;-75
2023/04/12 16:09:25;;;;;;;3.00;2.40;;;10.60;99.90;;;;;;2610949;54;20254;-76
2023/04/12 16:15:12;;;;;;;3.60;3.20;;;10.40;99.90;;;;;;2608912;54;20399;-76
2023/04/12 16:18:30;;;;;;;3.50;3.20;;;10.30;99.90;;;;;;2610155;54;20906;-76
2023/04/12 16:20:55;;;;;;;3.83;2.97;;;10.10;99.90;;;;;;2608708;54;20149;-76
2023/04/12 16:26:44;;;;;;;3.37;2.63;;;9.90;99.90;;;;;;2612863;54;20134;-76
2023/04/12 16:32:34;;;;;;;2.93;2.63;;;9.70;99.90;;;;;;2608913;54;20358;-76
2023/04/12 16:38:22;;;;;;;7.10;2.87;;;9.60;99.90;;;;;;2608589;54;20362;-76
2023/04/12 16:44:16;;;;;;;2.70;2.50;;;9.60;99.90;;;;;;2609656;54;20173;-75
2023/04/12 16:50:07;;;;;;;3.00;2.57;;;9.40;99.90;;;;;;2612241;54;20923;-75
2023/04/12 16:55:55;;;;;;;3.63;2.93;;;9.00;99.90;;;;;;2614164;54;20387;-75
2023/04/12 17:01:45;;;;;;;2.90;1.97;;;8.70;99.90;;;;;;2612261;54;20138;-75
2023/04/12 17:07:33;;;;;;;2.37;2.03;;;8.90;99.90;;;;;;2610590;54;20536;-76
2023/04/12 17:13:21;;;;;;;1.70;1.60;;;8.90;99.90;;;;;;2613335;54;20371;-77
2023/04/12 17:23:02;;;;;;;5.03;3.07;;;8.50;99.90;;;;;;2612029;39;21914;-76
2023/04/12 17:28:53;;;;;;;5.13;4.30;;;8.60;99.90;;;;;;2614006;54;20359;-77
2023/04/12 17:34:41;;;;;;;3.83;2.60;;;8.70;99.90;;;;;;2614290;54;20384;-76
2023/04/12 17:40:29;;;;;;;4.77;4.20;;;8.70;99.90;;;;;;2611042;54;20367;-76
2023/04/12 17:46:16;;;;;;;4.03;3.27;;;8.50;99.90;;;;;;2613905;54;20122;-76
2023/04/12 17:52:05;;;;;;;3.00;2.80;;;8.30;99.90;;;;;;2609686;54;20131;-76
2023/04/12 17:57:53;;;;;;;4.27;3.87;;;8.10;99.90;;;;;;2611062;54;20928;-78
2023/04/12 18:03:41;;;;;;;4.50;3.50;;;8.00;99.90;;;;;;2612218;39;20577;-76
2023/04/12 18:09:28;;;;;;;5.53;3.17;;;7.70;99.90;;;;;;2612075;54;20366;-75
2023/04/12 18:15:17;;;;;;;5.20;2.87;;;7.60;99.90;;;;;;2613116;54;21131;-76
2023/04/12 18:18:30;;;;;;;3.20;2.90;;;7.60;99.90;;;;;;2612832;54;20398;-75
2023/04/12 18:20:55;;;;;;;5.93;2.60;;;7.40;99.90;;;;;;2611898;54;20441;-76
2023/04/12 18:26:44;;;;;;;5.77;3.20;;;7.30;99.90;;;;;;2612088;39;20499;-77
2023/04/12 18:32:32;;;;;;;4.57;3.33;;;7.20;99.90;;;;;;2611731;54;20471;-76
2023/04/12 18:38:21;;;;;;;6.63;3.70;;;7.30;99.90;;;;;;2612630;54;20127;-75
2023/04/12 18:44:10;;;;;;;3.20;2.50;;;7.10;99.90;;;;;;2612215;54;20972;-76
2023/04/12 18:49:57;;;;;;;3.67;2.60;;;7.10;99.90;;;;;;2610991;54;20491;-76
2023/04/12 18:55:46;;;;;;;3.10;2.80;;;7.20;99.90;;;;;;2611375;54;20146;-76
2023/04/12 19:01:34;;;;;;;3.53;2.90;;;7.30;99.90;;;;;;2610641;54;20423;-76
2023/04/12 19:07:23;;;;;;;4.10;2.63;;;7.30;99.90;;;;;;2612277;54;20368;-75
2023/04/12 19:13:11;;;;;;;5.87;3.00;;;7.40;99.90;;;;;;2613853;54;20387;-77
2023/04/12 19:29:24;;;;;;;4.20;3.10;;;7.60;99.90;;;;;;2611716;54;20387;-76
2023/04/12 19:35:12;;;;;;;6.10;3.90;;;7.60;99.90;;;;;;2610947;54;20134;-76
2023/04/12 19:41:00;;;;;;;6.63;2.93;;;7.60;99.90;;;;;;2610678;54;20431;-76
2023/04/12 19:46:47;;;;;;;6.10;3.80;;;7.50;99.90;;;;;;2612937;54;20122;-77
2023/04/12 19:52:34;;;;;;;4.97;3.70;;;7.40;99.90;;;;;;2613194;54;20371;-75
2023/04/12 19:58:22;;;;;;;9.00;3.97;;;7.30;99.90;;;;;;2611919;54;20134;-76
2023/04/12 20:01:25;;;;;;;7.97;4.40;;;7.30;99.90;;;;;;2612193;54;20887;-76
2023/04/12 20:03:51;;;;;;;5.00;3.70;;;7.40;99.90;;;;;;2610513;54;20391;-76
2023/04/12 20:09:38;;;;;;;4.13;3.23;;;7.40;99.90;;;;;;2612827;54;20126;-75
2023/04/12 20:15:26;;;;;;;7.10;4.07;;;7.40;99.90;;;;;;2612583;54;20146;-76
2023/04/12 20:21:33;;;;;;;4.87;3.63;;;7.60;99.90;;;;;;2610560;54;20447;-76
2023/04/12 20:27:21;;;;;;;5.67;3.50;;;7.50;99.90;;;;;;2610831;54;20428;-75
2023/04/12 20:33:09;;;;;;;6.10;2.93;;;7.50;99.90;;;;;;2606434;54;20961;-76
2023/04/12 20:38:56;;;;;;;3.00;2.80;;;7.60;99.90;;;;;;2609163;39;20626;-76
2023/04/12 20:44:43;;;;;;;4.10;2.97;;;7.60;99.90;;;;;;2611670;54;20118;-76
2023/04/12 20:50:31;;;;;;;5.27;3.00;;;7.70;99.90;;;;;;2611390;46;20178;-74
2023/04/12 20:56:19;;;;;;;3.67;1.77;;;7.70;99.90;;;;;;2608943;54;20375;-75
2023/04/12 21:02:07;;;;;;;1.90;1.40;;;7.60;99.90;;;;;;2612898;54;20177;-73
2023/04/12 21:07:56;;;;;;;1.57;1.40;;;6.90;99.90;;;;;;2611938;54;20917;-72
2023/04/12 21:13:44;;;;;;;2.40;1.53;;;6.60;99.90;;;;;;2612692;54;20459;-73
2023/04/12 21:23:03;;;;;;;2.23;1.40;;;6.30;99.90;;;;;;2612461;54;20378;-75
2023/04/12 21:28:51;;;;;;;2.53;1.60;;;5.90;99.90;;;;;;2613653;54;20909;-74
2023/04/12 21:34:38;;;;;;;2.03;1.60;;;5.70;99.90;;;;;;2613607;39;20589;-76
2023/04/12 21:40:26;;;;;;;2.57;2.00;;;5.60;99.90;;;;;;2613577;54;20147;-74
2023/04/12 21:46:14;;;;;;;4.90;2.20;;;5.60;99.90;;;;;;2612767;54;20179;-75
2023/04/12 21:52:01;;;;;;;3.00;1.93;;;6.10;99.90;;;;;;2613204;54;20363;-74
2023/04/12 21:57:49;;;;;;;4.23;2.33;;;6.00;99.90;;;;;;2611609;54;20147;-74
2023/04/12 22:03:37;;;;;;;3.20;2.00;;;6.00;99.90;;;;;;2614359;39;20627;-75
2023/04/12 22:09:26;;;;;;;3.37;2.90;;;6.50;99.90;;;;;;2614513;39;20515;-74
2023/04/12 22:15:14;;;;;;;9.73;3.60;;;6.60;99.90;;;;;;2610290;54;20367;-75
2023/04/12 22:21:14;;;;;;;9.30;3.90;;;6.60;99.90;;;;;;2611840;54;20436;-75
2023/04/12 22:27:02;;;;;;;4.37;3.43;;;6.70;99.90;;;;;;2611649;54;20387;-74
2023/04/12 22:32:51;;;;;;;8.37;2.70;;;6.50;99.90;;;;;;2609895;39;21198;-74
2023/04/12 22:38:38;;;;;;;4.67;2.70;;;6.50;99.90;;;;;;2611525;54;20435;-75
2023/04/12 22:44:26;;;;;;;2.83;2.53;;;6.40;99.90;;;;;;2612663;54;20940;-75
2023/04/12 22:50:13;;;;;;;3.30;2.80;;;6.30;99.90;;;;;;2611368;39;20986;-74
2023/04/12 22:56:00;;;;;;;4.90;3.73;;;6.30;99.90;;;;;;2610143;54;20366;-74
2023/04/12 23:01:48;;;;;;;4.23;3.20;;;6.30;99.90;;;;;;2613677;54;20150;-74
2023/04/12 23:07:37;;;;;;;3.50;2.20;;;6.40;99.90;;;;;;2613507;54;20379;-74
2023/04/12 23:13:24;;;;;;;3.03;2.10;;;6.50;99.90;;;;;;2613375;54;20436;-74
2023/04/12 23:23:02;;;;;;;2.60;2.40;;;6.70;99.90;;;;;;2613465;54;20391;-73
2023/04/12 23:28:50;;;;;;;3.00;2.60;;;6.60;99.90;;;;;;2612420;46;20562;-74
2023/04/12 23:34:38;;;;;;;5.60;3.40;;;6.70;99.90;;;;;;2614411;31;20823;-74
2023/04/12 23:40:27;;;;;;;3.10;2.70;;;6.70;99.90;;;;;;2613469;54;20162;-75
2023/04/12 23:46:14;;;;;;;3.43;2.70;;;6.70;99.90;;;;;;2612094;54;20443;-74
2023/04/12 23:52:01;;;;;;;3.50;2.80;;;7.00;99.90;;;;;;2613489;54;20177;-75
2023/04/12 23:57:49;;;;;;;2.73;2.40;;;7.00;99.90;;;;;;2613908;54;20127;-75
